Time;durP1;ratioP1;P1;durP2;ratioP2;P2;SDS_P1;SDS_P2;PMS_P1;PMS_P2;Temp;Humidity;BMP_temperature;BMP_pressure;BME280_temperature;BME280_humidity;BME280_pressure;Samples;Min_cycle;Max_cycle;Signal;HPM_P1;HPM_P2
2022/02/27 17:39:48;;;;;;;24.02;10.35;;;;;;;;;;5066878;28;20379;-61
2022/02/27 17:42:14;;;;;;;26.88;11.75;;;;;;;;;;5067427;28;20028;-61
2022/02/27 17:44:40;;;;;;;27.25;11.98;;;;;;;;;;5066995;28;20021;-62
2022/02/27 17:47:06;;;;;;;22.95;10.57;;;;;;;;;;5068041;28;20036;-62
2022/02/27 17:49:32;;;;;;;18.27;8.02;;;;;;;;;;5066834;28;20036;-64
2022/02/27 17:51:58;;;;;;;15.68;7.97;;;;;;;;;;5066952;28;20384;-62
2022/02/27 17:54:24;;;;;;;21.52;9.73;;;;;;;;;;5067527;28;20025;-60
2022/02/27 17:56:51;;;;;;;22.33;9.13;;;;;;;;;;5067253;28;20546;-61
2022/02/27 17:59:18;;;;;;;17.58;8.32;;;;;;;;;;5067288;28;20037;-60
2022/02/27 18:01:44;;;;;;;17.15;8.07;;;;;;;;;;5066980;28;20060;-61
2022/02/27 18:04:10;;;;;;;15.18;7.38;;;;;;;;;;5066473;28;20025;-61
2022/02/27 18:06:37;;;;;;;15.60;7.47;;;;;;;;;;5065138;28;20021;-63
2022/02/27 18:09:06;;;;;;;14.55;6.65;;;;;;;;;;5066034;28;20151;-62
2022/02/27 18:11:32;;;;;;;14.43;6.65;;;;;;;;;;5066813;28;20032;-62
2022/02/27 18:13:59;;;;;;;15.73;7.35;;;;;;;;;;5066594;28;20028;-64
2022/02/27 18:16:25;;;;;;;13.75;7.13;;;;;;;;;;5067549;28;20523;-64
2022/02/27 18:18:51;;;;;;;16.60;7.13;;;;;;;;;;5066075;28;20040;-61
2022/02/27 18:21:17;;;;;;;13.63;6.22;;;;;;;;;;5065815;28;20025;-62
2022/02/27 18:23:43;;;;;;;18.20;7.70;;;;;;;;;;5066384;28;20025;-62
2022/02/27 18:26:10;;;;;;;19.48;8.48;;;;;;;;;;5066515;28;20021;-62
2022/02/27 18:28:36;;;;;;;17.25;8.32;;;;;;;;;;5066660;28;20472;-61
2022/02/27 18:31:02;;;;;;;15.55;8.25;;;;;;;;;;5063137;28;20107;-62
2022/02/27 18:33:28;;;;;;;14.85;7.25;;;;;;;;;;5065035;28;20021;-61
2022/02/27 18:35:54;;;;;;;11.98;5.95;;;;;;;;;;5067177;28;20373;-62
2022/02/27 18:38:21;;;;;;;12.95;5.47;;;;;;;;;;5062400;28;20044;-61
2022/02/27 18:40:47;;;;;;;13.93;6.18;;;;;;;;;;5063791;28;20059;-61
2022/02/27 18:43:13;;;;;;;8.95;4.82;;;;;;;;;;5057625;28;20096;-61
2022/02/27 18:45:39;;;;;;;9.30;4.47;;;;;;;;;;5064689;28;20024;-63
2022/02/27 18:48:05;;;;;;;9.30;4.78;;;;;;;;;;5066050;28;20048;-61
2022/02/27 18:50:31;;;;;;;10.50;5.40;;;;;;;;;;5053184;28;20025;-60
2022/02/27 18:52:57;;;;;;;11.40;5.88;;;;;;;;;;5040126;28;20060;-62
2022/02/27 18:55:24;;;;;;;13.43;6.32;;;;;;;;;;5043289;28;20024;-63
2022/02/27 18:57:50;;;;;;;14.63;6.82;;;;;;;;;;5042909;28;20033;-62
2022/02/27 19:00:17;;;;;;;17.30;7.47;;;;;;;;;;5044409;28;20025;-62
2022/02/27 19:02:44;;;;;;;17.80;8.18;;;;;;;;;;5041631;28;20029;-62
2022/02/27 19:05:10;;;;;;;15.43;6.97;;;;;;;;;;5043215;28;20059;-62
2022/02/27 19:07:37;;;;;;;15.45;7.78;;;;;;;;;;5052747;28;20029;-62
2022/02/27 19:10:04;;;;;;;19.23;9.43;;;;;;;;;;5053184;28;20021;-61
2022/02/27 19:12:30;;;;;;;19.55;8.70;;;;;;;;;;5050567;28;20046;-62
2022/02/27 19:14:56;;;;;;;20.90;10.55;;;;;;;;;;5034719;28;20017;-63
2022/02/27 19:17:22;;;;;;;24.25;11.98;;;;;;;;;;5032438;28;20032;-62
2022/02/27 19:19:48;;;;;;;22.35;10.95;;;;;;;;;;5038630;28;20152;-64
2022/02/27 19:22:14;;;;;;;22.55;12.13;;;;;;;;;;5042201;28;20021;-62
2022/02/27 19:24:40;;;;;;;26.27;12.95;;;;;;;;;;5040455;28;20074;-62
2022/02/27 19:27:06;;;;;;;21.35;11.75;;;;;;;;;;5046669;28;20025;-60
2022/02/27 19:29:33;;;;;;;20.27;10.35;;;;;;;;;;5036686;28;20029;-60
2022/02/27 19:32:00;;;;;;;18.15;8.23;;;;;;;;;;5039822;28;20039;-61
2022/02/27 19:34:26;;;;;;;12.55;7.05;;;;;;;;;;5048020;28;20033;-60
2022/02/27 19:36:52;;;;;;;13.20;6.45;;;;;;;;;;5043187;28;20124;-62
2022/02/27 19:39:18;;;;;;;12.15;5.97;;;;;;;;;;5041849;28;20553;-62
2022/02/27 19:41:45;;;;;;;12.70;5.88;;;;;;;;;;5042248;28;20033;-63
2022/02/27 19:44:11;;;;;;;11.25;6.00;;;;;;;;;;5045458;28;20082;-62
2022/02/27 19:46:37;;;;;;;14.32;7.13;;;;;;;;;;5052393;28;20031;-62
2022/02/27 19:49:03;;;;;;;18.77;8.57;;;;;;;;;;5046798;28;20061;-60
2022/02/27 19:51:30;;;;;;;18.35;8.38;;;;;;;;;;5046211;28;20039;-61
2022/02/27 19:54:00;;;;;;;18.23;8.63;;;;;;;;;;5035402;28;20648;-64
2022/02/27 19:56:26;;;;;;;26.63;12.63;;;;;;;;;;5038711;28;20026;-61
2022/02/27 19:58:53;;;;;;;28.40;13.63;;;;;;;;;;5036146;28;20059;-61
2022/02/27 20:01:19;;;;;;;25.45;12.23;;;;;;;;;;5029525;28;20570;-63
2022/02/27 20:03:45;;;;;;;27.08;12.45;;;;;;;;;;5030590;28;20033;-61
2022/02/27 20:06:11;;;;;;;24.77;11.60;;;;;;;;;;5043637;28;20139;-62
2022/02/27 20:08:38;;;;;;;25.63;13.48;;;;;;;;;;5034539;28;20046;-61
2022/02/27 20:11:05;;;;;;;27.50;13.27;;;;;;;;;;5032948;28;20106;-63
2022/02/27 20:13:31;;;;;;;25.38;12.15;;;;;;;;;;5031400;28;20017;-62
2022/02/27 20:15:58;;;;;;;27.38;13.63;;;;;;;;;;5044530;28;20040;-61
2022/02/27 20:18:24;;;;;;;27.65;13.77;;;;;;;;;;5044305;28;20033;-63
2022/02/27 20:20:52;;;;;;;24.83;12.80;;;;;;;;;;5042628;28;20021;-61
2022/02/27 20:23:19;;;;;;;22.88;10.95;;;;;;;;;;5045259;28;20057;-61
2022/02/27 20:25:45;;;;;;;21.65;10.40;;;;;;;;;;5039272;28;20071;-61
2022/02/27 20:28:12;;;;;;;21.40;10.20;;;;;;;;;;5040154;28;20472;-61
2022/02/27 20:30:39;;;;;;;20.23;9.82;;;;;;;;;;5038256;28;20029;-60
2022/02/27 20:33:05;;;;;;;16.67;8.38;;;;;;;;;;5039571;28;20029;-60
2022/02/27 20:35:31;;;;;;;20.52;9.38;;;;;;;;;;5040404;28;20047;-61
2022/02/27 20:37:58;;;;;;;19.05;9.70;;;;;;;;;;5039713;28;20088;-61
2022/02/27 20:40:25;;;;;;;17.33;8.90;;;;;;;;;;5040371;28;20100;-63
2022/02/27 20:42:53;;;;;;;18.83;8.80;;;;;;;;;;5039003;28;20090;-62
2022/02/27 20:45:20;;;;;;;20.70;9.40;;;;;;;;;;5040682;28;20021;-61
2022/02/27 20:47:46;;;;;;;15.38;8.25;;;;;;;;;;5040968;28;20124;-63
2022/02/27 20:50:12;;;;;;;13.38;7.55;;;;;;;;;;5039299;28;20020;-64
2022/02/27 20:52:38;;;;;;;14.57;7.22;;;;;;;;;;5044163;28;20033;-63
2022/02/27 20:55:06;;;;;;;15.52;7.35;;;;;;;;;;5049669;28;20020;-60
2022/02/27 20:57:32;;;;;;;14.52;7.68;;;;;;;;;;5047638;28;20419;-64
2022/02/27 20:59:58;;;;;;;20.65;9.60;;;;;;;;;;5041125;28;20065;-63
2022/02/27 21:02:24;;;;;;;12.98;6.80;;;;;;;;;;5031990;28;20428;-62
2022/02/27 21:04:50;;;;;;;13.43;5.72;;;;;;;;;;5030956;28;20430;-61
2022/02/27 21:07:16;;;;;;;11.13;6.32;;;;;;;;;;5031220;28;20040;-59
2022/02/27 21:09:43;;;;;;;14.45;5.55;;;;;;;;;;5031116;28;20029;-61
2022/02/27 21:12:09;;;;;;;9.65;5.78;;;;;;;;;;5043396;28;20036;-60
2022/02/27 21:14:35;;;;;;;12.35;5.78;;;;;;;;;;5038897;28;20062;-62
2022/02/27 21:17:01;;;;;;;10.73;6.00;;;;;;;;;;5050602;28;20060;-61
2022/02/27 21:19:27;;;;;;;12.60;5.80;;;;;;;;;;5049784;28;20045;-61
2022/02/27 21:21:53;;;;;;;11.85;5.90;;;;;;;;;;5043238;28;20083;-60
2022/02/27 21:24:19;;;;;;;13.60;5.72;;;;;;;;;;5030683;28;20558;-61
2022/02/27 21:26:45;;;;;;;13.38;6.18;;;;;;;;;;5030123;28;20394;-62
2022/02/27 21:29:13;;;;;;;12.68;6.32;;;;;;;;;;5030746;28;20108;-62
2022/02/27 21:31:40;;;;;;;10.90;5.93;;;;;;;;;;5030551;28;20045;-62
2022/02/27 21:34:06;;;;;;;13.23;6.75;;;;;;;;;;5030454;28;20504;-62
2022/02/27 21:36:32;;;;;;;14.68;7.45;;;;;;;;;;5030336;28;20052;-61
2022/02/27 21:38:58;;;;;;;15.98;7.63;;;;;;;;;;5030075;28;20061;-59
2022/02/27 21:41:24;;;;;;;14.95;7.57;;;;;;;;;;5030292;28;20040;-62
2022/02/27 21:43:51;;;;;;;15.32;7.97;;;;;;;;;;5030320;28;20026;-59
2022/02/27 21:46:20;;;;;;;18.48;10.18;;;;;;;;;;5030142;28;20057;-61
2022/02/27 21:48:47;;;;;;;23.35;11.98;;;;;;;;;;5030672;28;20038;-61
2022/02/27 21:51:13;;;;;;;19.33;10.85;;;;;;;;;;5030097;28;20104;-61
2022/02/27 21:53:39;;;;;;;19.17;10.13;;;;;;;;;;5036496;28;20033;-63
2022/02/27 21:56:05;;;;;;;22.98;10.52;;;;;;;;;;5050228;28;20029;-62
2022/02/27 21:58:31;;;;;;;18.98;9.90;;;;;;;;;;5050325;28;20044;-60
2022/02/27 22:00:57;;;;;;;18.27;10.73;;;;;;;;;;5040563;28;20079;-61
2022/02/27 22:03:23;;;;;;;18.40;10.52;;;;;;;;;;5038356;28;20033;-61
2022/02/27 22:05:49;;;;;;;18.08;10.38;;;;;;;;;;5039813;28;20092;-59
2022/02/27 22:08:15;;;;;;;16.58;9.52;;;;;;;;;;5041843;28;20044;-61
2022/02/27 22:10:42;;;;;;;19.60;10.75;;;;;;;;;;5038947;28;20032;-60
2022/02/27 22:13:08;;;;;;;16.67;9.63;;;;;;;;;;5039476;28;20124;-60
2022/02/27 22:15:34;;;;;;;16.92;9.52;;;;;;;;;;5037865;28;20021;-59
2022/02/27 22:18:00;;;;;;;20.77;9.90;;;;;;;;;;5039124;28;20476;-60
2022/02/27 22:20:26;;;;;;;14.48;9.90;;;;;;;;;;5042871;28;20036;-60
2022/02/27 22:22:53;;;;;;;16.67;9.70;;;;;;;;;;5039038;28;20104;-60
2022/02/27 22:25:19;;;;;;;18.48;11.15;;;;;;;;;;5041682;28;20113;-61
2022/02/27 22:27:45;;;;;;;19.45;11.43;;;;;;;;;;5041661;28;20029;-60
2022/02/27 22:30:11;;;;;;;21.10;10.77;;;;;;;;;;5042215;28;20032;-61
2022/02/27 22:32:38;;;;;;;17.38;10.13;;;;;;;;;;5043372;28;20069;-61
2022/02/27 22:35:04;;;;;;;21.40;10.57;;;;;;;;;;5041695;28;20596;-60
2022/02/27 22:37:30;;;;;;;13.35;9.13;;;;;;;;;;5042490;28;20468;-60
2022/02/27 22:39:56;;;;;;;18.55;10.18;;;;;;;;;;5043039;28;20037;-61
2022/02/27 22:42:23;;;;;;;13.50;9.70;;;;;;;;;;5041602;28;20025;-62
2022/02/27 22:44:49;;;;;;;16.40;9.90;;;;;;;;;;5043103;28;20378;-62
2022/02/27 22:47:15;;;;;;;15.27;9.52;;;;;;;;;;5042823;28;20018;-62
2022/02/27 22:49:41;;;;;;;15.27;9.30;;;;;;;;;;5044463;28;20438;-63
2022/02/27 22:52:07;;;;;;;16.17;9.55;;;;;;;;;;5041342;28;20380;-64
2022/02/27 22:54:33;;;;;;;14.48;9.35;;;;;;;;;;5041958;28;20017;-62
2022/02/27 22:56:59;;;;;;;21.30;9.88;;;;;;;;;;5042900;28;20485;-61
2022/02/27 22:59:25;;;;;;;18.63;10.05;;;;;;;;;;5041128;28;20029;-62
2022/02/27 23:01:51;;;;;;;16.45;11.05;;;;;;;;;;5042137;28;20092;-62
2022/02/27 23:07:02;;;;;;;16.50;11.07;;;;;;;;;;5043460;28;20563;-62
2022/02/27 23:09:28;;;;;;;15.25;10.45;;;;;;;;;;5041030;28;20056;-61
2022/02/27 23:11:54;;;;;;;19.58;11.63;;;;;;;;;;5042192;28;20017;-62
